sensor_id;sensor_type;location;lat;lon;timestamp;P1;durP1;ratioP1;P2;durP2;ratioP2
21876;SDS011;11103;43.788;23.710;2023-03-01T00:01:03;64.73;;;32.43;;
21876;SDS011;11103;43.788;23.710;2023-03-01T00:03:30;62.30;;;33.70;;
21876;SDS011;11103;43.788;23.710;2023-03-01T00:05:56;62.73;;;32.63;;
21876;SDS011;11103;43.788;23.710;2023-03-01T00:08:22;63.70;;;33.37;;
21876;SDS011;11103;43.788;23.710;2023-03-01T00:10:47;65.00;;;33.07;;
21876;SDS011;11103;43.788;23.710;2023-03-01T00:13:13;59.47;;;30.13;;
21876;SDS011;11103;43.788;23.710;2023-03-01T00:15:39;57.63;;;32.27;;
21876;SDS011;11103;43.788;23.710;2023-03-01T00:18:05;68.57;;;33.40;;
21876;SDS011;11103;43.788;23.710;2023-03-01T00:20:31;64.23;;;32.53;;
21876;SDS011;11103;43.788;23.710;2023-03-01T00:22:56;69.50;;;35.57;;
21876;SDS011;11103;43.788;23.710;2023-03-01T00:25:22;71.40;;;36.60;;
21876;SDS011;11103;43.788;23.710;2023-03-01T00:27:47;70.30;;;35.27;;
21876;SDS011;11103;43.788;23.710;2023-03-01T00:30:14;67.70;;;35.07;;
21876;SDS011;11103;43.788;23.710;2023-03-01T00:32:40;74.80;;;35.60;;
21876;SDS011;11103;43.788;23.710;2023-03-01T00:35:05;71.43;;;35.00;;
21876;SDS011;11103;43.788;23.710;2023-03-01T00:37:31;65.40;;;33.93;;
21876;SDS011;11103;43.788;23.710;2023-03-01T00:39:56;73.40;;;35.50;;
21876;SDS011;11103;43.788;23.710;2023-03-01T00:42:21;65.73;;;34.70;;
21876;SDS011;11103;43.788;23.710;2023-03-01T00:44:47;73.37;;;35.93;;
21876;SDS011;11103;43.788;23.710;2023-03-01T00:47:12;75.67;;;36.87;;
21876;SDS011;11103;43.788;23.710;2023-03-01T00:49:38;75.13;;;36.50;;
21876;SDS011;11103;43.788;23.710;2023-03-01T00:52:05;85.03;;;39.17;;
21876;SDS011;11103;43.788;23.710;2023-03-01T00:54:30;73.47;;;37.47;;
21876;SDS011;11103;43.788;23.710;2023-03-01T00:56:56;78.27;;;37.00;;
21876;SDS011;11103;43.788;23.710;2023-03-01T00:59:21;73.03;;;36.37;;
21876;SDS011;11103;43.788;23.710;2023-03-01T01:01:46;76.97;;;35.97;;
21876;SDS011;11103;43.788;23.710;2023-03-01T01:04:12;72.00;;;35.40;;
21876;SDS011;11103;43.788;23.710;2023-03-01T01:09:07;75.63;;;36.13;;
21876;SDS011;11103;43.788;23.710;2023-03-01T01:11:34;75.40;;;35.03;;
21876;SDS011;11103;43.788;23.710;2023-03-01T01:14:01;75.00;;;36.50;;
21876;SDS011;11103;43.788;23.710;2023-03-01T01:16:27;70.30;;;35.60;;
21876;SDS011;11103;43.788;23.710;2023-03-01T01:18:54;73.77;;;35.97;;
21876;SDS011;11103;43.788;23.710;2023-03-01T01:21:22;72.37;;;36.20;;
21876;SDS011;11103;43.788;23.710;2023-03-01T01:23:49;72.30;;;35.40;;
21876;SDS011;11103;43.788;23.710;2023-03-01T01:26:16;69.20;;;34.40;;
21876;SDS011;11103;43.788;23.710;2023-03-01T01:28:44;71.27;;;35.20;;
21876;SDS011;11103;43.788;23.710;2023-03-01T01:31:11;70.27;;;33.10;;
21876;SDS011;11103;43.788;23.710;2023-03-01T01:33:36;66.53;;;33.00;;
21876;SDS011;11103;43.788;23.710;2023-03-01T01:36:02;64.07;;;33.67;;
21876;SDS011;11103;43.788;23.710;2023-03-01T01:38:29;69.47;;;34.37;;
21876;SDS011;11103;43.788;23.710;2023-03-01T01:40:54;64.57;;;35.00;;
21876;SDS011;11103;43.788;23.710;2023-03-01T01:43:36;70.27;;;34.20;;
21876;SDS011;11103;43.788;23.710;2023-03-01T01:46:13;70.07;;;34.87;;
21876;SDS011;11103;43.788;23.710;2023-03-01T01:48:41;66.10;;;33.90;;
21876;SDS011;11103;43.788;23.710;2023-03-01T01:51:13;66.60;;;33.33;;
21876;SDS011;11103;43.788;23.710;2023-03-01T01:53:45;67.17;;;33.40;;
21876;SDS011;11103;43.788;23.710;2023-03-01T01:56:16;63.97;;;33.50;;
21876;SDS011;11103;43.788;23.710;2023-03-01T01:58:44;67.53;;;33.67;;
21876;SDS011;11103;43.788;23.710;2023-03-01T02:01:12;62.07;;;32.60;;
21876;SDS011;11103;43.788;23.710;2023-03-01T02:03:38;59.03;;;31.07;;
21876;SDS011;11103;43.788;23.710;2023-03-01T02:08:33;56.33;;;30.17;;
21876;SDS011;11103;43.788;23.710;2023-03-01T02:11:02;60.73;;;32.33;;
21876;SDS011;11103;43.788;23.710;2023-03-01T02:13:34;57.50;;;30.87;;
21876;SDS011;11103;43.788;23.710;2023-03-01T02:16:04;59.43;;;29.50;;
21876;SDS011;11103;43.788;23.710;2023-03-01T02:18:33;58.30;;;29.77;;
21876;SDS011;11103;43.788;23.710;2023-03-01T02:23:36;61.93;;;31.50;;
21876;SDS011;11103;43.788;23.710;2023-03-01T02:26:09;62.87;;;30.70;;
21876;SDS011;11103;43.788;23.710;2023-03-01T02:28:44;58.17;;;30.63;;
21876;SDS011;11103;43.788;23.710;2023-03-01T02:31:11;60.97;;;31.63;;
21876;SDS011;11103;43.788;23.710;2023-03-01T02:33:59;66.63;;;32.77;;
21876;SDS011;11103;43.788;23.710;2023-03-01T02:36:30;70.17;;;34.47;;
21876;SDS011;11103;43.788;23.710;2023-03-01T02:39:00;65.70;;;33.80;;
21876;SDS011;11103;43.788;23.710;2023-03-01T02:41:30;70.50;;;34.73;;
21876;SDS011;11103;43.788;23.710;2023-03-01T02:43:59;74.07;;;34.90;;
21876;SDS011;11103;43.788;23.710;2023-03-01T02:46:25;77.70;;;36.93;;
21876;SDS011;11103;43.788;23.710;2023-03-01T02:54:28;75.37;;;36.43;;
21876;SDS011;11103;43.788;23.710;2023-03-01T02:57:01;72.40;;;36.70;;
21876;SDS011;11103;43.788;23.710;2023-03-01T02:59:29;82.67;;;38.57;;
21876;SDS011;11103;43.788;23.710;2023-03-01T03:01:59;79.03;;;37.90;;
21876;SDS011;11103;43.788;23.710;2023-03-01T03:04:25;81.97;;;38.80;;
21876;SDS011;11103;43.788;23.710;2023-03-01T03:06:51;79.30;;;38.63;;
21876;SDS011;11103;43.788;23.710;2023-03-01T03:09:17;91.77;;;39.90;;
21876;SDS011;11103;43.788;23.710;2023-03-01T03:11:43;84.63;;;38.90;;
21876;SDS011;11103;43.788;23.710;2023-03-01T03:14:09;80.87;;;39.20;;
21876;SDS011;11103;43.788;23.710;2023-03-01T03:16:43;77.73;;;36.50;;
21876;SDS011;11103;43.788;23.710;2023-03-01T03:19:10;81.37;;;38.00;;
21876;SDS011;11103;43.788;23.710;2023-03-01T03:21:36;79.00;;;38.70;;
21876;SDS011;11103;43.788;23.710;2023-03-01T03:24:02;80.27;;;39.23;;
21876;SDS011;11103;43.788;23.710;2023-03-01T03:26:28;81.03;;;39.77;;
21876;SDS011;11103;43.788;23.710;2023-03-01T03:28:54;81.27;;;37.47;;
21876;SDS011;11103;43.788;23.710;2023-03-01T03:31:19;81.10;;;39.03;;
21876;SDS011;11103;43.788;23.710;2023-03-01T03:33:45;77.50;;;38.00;;
21876;SDS011;11103;43.788;23.710;2023-03-01T03:36:14;76.00;;;36.47;;
21876;SDS011;11103;43.788;23.710;2023-03-01T03:38:42;87.93;;;38.97;;
21876;SDS011;11103;43.788;23.710;2023-03-01T03:41:09;77.23;;;38.13;;
21876;SDS011;11103;43.788;23.710;2023-03-01T03:43:35;78.37;;;38.13;;
21876;SDS011;11103;43.788;23.710;2023-03-01T03:46:02;69.60;;;35.17;;
21876;SDS011;11103;43.788;23.710;2023-03-01T03:48:31;82.37;;;37.70;;
21876;SDS011;11103;43.788;23.710;2023-03-01T03:51:00;78.53;;;37.13;;
21876;SDS011;11103;43.788;23.710;2023-03-01T03:53:26;72.23;;;37.77;;
21876;SDS011;11103;43.788;23.710;2023-03-01T03:55:53;72.23;;;36.43;;
21876;SDS011;11103;43.788;23.710;2023-03-01T03:58:19;76.27;;;36.73;;
21876;SDS011;11103;43.788;23.710;2023-03-01T04:00:49;75.47;;;37.40;;
21876;SDS011;11103;43.788;23.710;2023-03-01T04:03:17;69.90;;;35.07;;
21876;SDS011;11103;43.788;23.710;2023-03-01T04:05:45;77.67;;;38.10;;
21876;SDS011;11103;43.788;23.710;2023-03-01T04:08:11;82.87;;;37.30;;
21876;SDS011;11103;43.788;23.710;2023-03-01T04:10:37;77.43;;;38.37;;
21876;SDS011;11103;43.788;23.710;2023-03-01T04:13:05;73.00;;;36.00;;
21876;SDS011;11103;43.788;23.710;2023-03-01T04:15:31;74.23;;;37.00;;
21876;SDS011;11103;43.788;23.710;2023-03-01T04:17:58;66.90;;;35.93;;
21876;SDS011;11103;43.788;23.710;2023-03-01T04:20:25;78.57;;;38.50;;
21876;SDS011;11103;43.788;23.710;2023-03-01T04:23:06;68.17;;;34.30;;
21876;SDS011;11103;43.788;23.710;2023-03-01T04:25:53;68.77;;;34.60;;
21876;SDS011;11103;43.788;23.710;2023-03-01T04:30:50;65.40;;;33.03;;
21876;SDS011;11103;43.788;23.710;2023-03-01T04:33:17;68.63;;;34.80;;
21876;SDS011;11103;43.788;23.710;2023-03-01T04:35:43;71.40;;;34.87;;
21876;SDS011;11103;43.788;23.710;2023-03-01T04:38:09;79.33;;;38.10;;
21876;SDS011;11103;43.788;23.710;2023-03-01T04:40:34;72.93;;;36.03;;
21876;SDS011;11103;43.788;23.710;2023-03-01T04:43:00;62.87;;;33.13;;
21876;SDS011;11103;43.788;23.710;2023-03-01T04:45:25;64.23;;;34.13;;
21876;SDS011;11103;43.788;23.710;2023-03-01T04:47:51;66.80;;;32.93;;
21876;SDS011;11103;43.788;23.710;2023-03-01T04:50:17;66.67;;;31.47;;
21876;SDS011;11103;43.788;23.710;2023-03-01T04:52:45;56.80;;;30.17;;
21876;SDS011;11103;43.788;23.710;2023-03-01T04:55:11;57.93;;;32.07;;
21876;SDS011;11103;43.788;23.710;2023-03-01T04:57:36;62.57;;;33.67;;
21876;SDS011;11103;43.788;23.710;2023-03-01T05:00:03;61.67;;;32.47;;
21876;SDS011;11103;43.788;23.710;2023-03-01T05:02:46;63.87;;;32.83;;
21876;SDS011;11103;43.788;23.710;2023-03-01T05:05:23;62.23;;;31.57;;
21876;SDS011;11103;43.788;23.710;2023-03-01T05:08:00;66.40;;;32.87;;
21876;SDS011;11103;43.788;23.710;2023-03-01T05:10:29;65.13;;;33.40;;
21876;SDS011;11103;43.788;23.710;2023-03-01T05:12:57;60.03;;;31.13;;
21876;SDS011;11103;43.788;23.710;2023-03-01T05:15:23;58.60;;;32.67;;
21876;SDS011;11103;43.788;23.710;2023-03-01T05:17:50;59.67;;;30.97;;
21876;SDS011;11103;43.788;23.710;2023-03-01T05:20:16;51.43;;;29.17;;
21876;SDS011;11103;43.788;23.710;2023-03-01T05:22:42;52.63;;;28.80;;
21876;SDS011;11103;43.788;23.710;2023-03-01T05:25:08;50.60;;;28.50;;
21876;SDS011;11103;43.788;23.710;2023-03-01T05:27:34;53.70;;;29.37;;
21876;SDS011;11103;43.788;23.710;2023-03-01T05:30:00;54.70;;;28.80;;
21876;SDS011;11103;43.788;23.710;2023-03-01T05:32:38;53.23;;;30.23;;
21876;SDS011;11103;43.788;23.710;2023-03-01T05:35:05;47.53;;;27.17;;
21876;SDS011;11103;43.788;23.710;2023-03-01T05:37:30;46.53;;;27.67;;
21876;SDS011;11103;43.788;23.710;2023-03-01T05:39:56;50.77;;;27.67;;
21876;SDS011;11103;43.788;23.710;2023-03-01T05:42:21;44.23;;;26.23;;
21876;SDS011;11103;43.788;23.710;2023-03-01T05:44:46;46.90;;;26.77;;
21876;SDS011;11103;43.788;23.710;2023-03-01T05:47:12;44.70;;;26.30;;
21876;SDS011;11103;43.788;23.710;2023-03-01T05:49:37;46.40;;;24.43;;
21876;SDS011;11103;43.788;23.710;2023-03-01T05:52:03;43.43;;;24.87;;
21876;SDS011;11103;43.788;23.710;2023-03-01T05:54:28;46.77;;;27.40;;
21876;SDS011;11103;43.788;23.710;2023-03-01T05:56:54;49.03;;;26.87;;
21876;SDS011;11103;43.788;23.710;2023-03-01T05:59:19;43.70;;;26.83;;
21876;SDS011;11103;43.788;23.710;2023-03-01T06:01:45;44.70;;;26.37;;
21876;SDS011;11103;43.788;23.710;2023-03-01T06:04:10;46.50;;;28.47;;
21876;SDS011;11103;43.788;23.710;2023-03-01T06:06:36;54.83;;;34.37;;
21876;SDS011;11103;43.788;23.710;2023-03-01T06:09:03;42.10;;;26.00;;
21876;SDS011;11103;43.788;23.710;2023-03-01T06:11:29;43.20;;;24.90;;
21876;SDS011;11103;43.788;23.710;2023-03-01T06:13:55;43.47;;;24.80;;
21876;SDS011;11103;43.788;23.710;2023-03-01T06:16:20;45.77;;;26.83;;
21876;SDS011;11103;43.788;23.710;2023-03-01T06:18:46;39.67;;;23.97;;
21876;SDS011;11103;43.788;23.710;2023-03-01T06:21:11;41.23;;;24.43;;
21876;SDS011;11103;43.788;23.710;2023-03-01T06:23:36;40.77;;;25.43;;
21876;SDS011;11103;43.788;23.710;2023-03-01T06:26:05;44.23;;;26.13;;
21876;SDS011;11103;43.788;23.710;2023-03-01T06:28:34;42.43;;;25.77;;
21876;SDS011;11103;43.788;23.710;2023-03-01T06:31:00;45.87;;;25.57;;
21876;SDS011;11103;43.788;23.710;2023-03-01T06:33:25;41.13;;;24.97;;
21876;SDS011;11103;43.788;23.710;2023-03-01T06:35:51;41.57;;;25.30;;
21876;SDS011;11103;43.788;23.710;2023-03-01T06:38:19;43.77;;;26.27;;
21876;SDS011;11103;43.788;23.710;2023-03-01T06:40:45;42.77;;;26.73;;
21876;SDS011;11103;43.788;23.710;2023-03-01T06:43:16;43.07;;;26.83;;
21876;SDS011;11103;43.788;23.710;2023-03-01T06:45:42;45.60;;;27.17;;
21876;SDS011;11103;43.788;23.710;2023-03-01T06:48:08;40.33;;;24.80;;
21876;SDS011;11103;43.788;23.710;2023-03-01T06:50:35;44.67;;;27.17;;
21876;SDS011;11103;43.788;23.710;2023-03-01T06:53:01;46.40;;;26.60;;
21876;SDS011;11103;43.788;23.710;2023-03-01T06:55:27;44.03;;;26.80;;
21876;SDS011;11103;43.788;23.710;2023-03-01T06:57:56;48.60;;;28.07;;
21876;SDS011;11103;43.788;23.710;2023-03-01T07:00:22;66.50;;;40.13;;
21876;SDS011;11103;43.788;23.710;2023-03-01T07:02:48;87.47;;;47.10;;
21876;SDS011;11103;43.788;23.710;2023-03-01T07:05:14;50.77;;;30.33;;
21876;SDS011;11103;43.788;23.710;2023-03-01T07:07:39;48.43;;;28.30;;
21876;SDS011;11103;43.788;23.710;2023-03-01T07:10:05;46.80;;;27.97;;
21876;SDS011;11103;43.788;23.710;2023-03-01T07:12:31;50.07;;;28.87;;
21876;SDS011;11103;43.788;23.710;2023-03-01T07:14:56;49.20;;;28.27;;
21876;SDS011;11103;43.788;23.710;2023-03-01T07:17:22;48.30;;;27.83;;
21876;SDS011;11103;43.788;23.710;2023-03-01T07:19:47;45.93;;;28.47;;
21876;SDS011;11103;43.788;23.710;2023-03-01T07:22:13;49.63;;;29.30;;
21876;SDS011;11103;43.788;23.710;2023-03-01T07:24:38;49.47;;;30.30;;
21876;SDS011;11103;43.788;23.710;2023-03-01T07:27:05;50.43;;;29.23;;
21876;SDS011;11103;43.788;23.710;2023-03-01T07:29:30;44.37;;;26.40;;
21876;SDS011;11103;43.788;23.710;2023-03-01T07:31:56;47.30;;;28.40;;
21876;SDS011;11103;43.788;23.710;2023-03-01T07:34:21;46.97;;;28.43;;
21876;SDS011;11103;43.788;23.710;2023-03-01T07:36:47;47.43;;;28.73;;
21876;SDS011;11103;43.788;23.710;2023-03-01T07:39:12;46.57;;;26.77;;
21876;SDS011;11103;43.788;23.710;2023-03-01T07:41:37;41.77;;;25.97;;
21876;SDS011;11103;43.788;23.710;2023-03-01T07:44:03;44.47;;;27.30;;
21876;SDS011;11103;43.788;23.710;2023-03-01T07:46:29;47.37;;;28.83;;
21876;SDS011;11103;43.788;23.710;2023-03-01T07:48:54;46.67;;;29.03;;
21876;SDS011;11103;43.788;23.710;2023-03-01T07:51:20;48.97;;;29.50;;
21876;SDS011;11103;43.788;23.710;2023-03-01T07:53:46;46.57;;;27.77;;
21876;SDS011;11103;43.788;23.710;2023-03-01T07:56:13;49.70;;;29.47;;
21876;SDS011;11103;43.788;23.710;2023-03-01T07:58:41;46.73;;;28.83;;
21876;SDS011;11103;43.788;23.710;2023-03-01T08:01:08;51.03;;;28.40;;
21876;SDS011;11103;43.788;23.710;2023-03-01T08:03:35;48.20;;;29.50;;
21876;SDS011;11103;43.788;23.710;2023-03-01T08:06:02;48.60;;;28.83;;
21876;SDS011;11103;43.788;23.710;2023-03-01T08:08:29;45.93;;;27.50;;
21876;SDS011;11103;43.788;23.710;2023-03-01T08:10:58;42.97;;;26.83;;
21876;SDS011;11103;43.788;23.710;2023-03-01T08:13:25;44.73;;;26.70;;
21876;SDS011;11103;43.788;23.710;2023-03-01T08:15:51;46.73;;;28.33;;
21876;SDS011;11103;43.788;23.710;2023-03-01T08:18:17;45.67;;;28.33;;
21876;SDS011;11103;43.788;23.710;2023-03-01T08:20:44;44.97;;;27.60;;
21876;SDS011;11103;43.788;23.710;2023-03-01T08:23:09;45.27;;;27.40;;
21876;SDS011;11103;43.788;23.710;2023-03-01T08:25:35;47.33;;;26.67;;
21876;SDS011;11103;43.788;23.710;2023-03-01T08:28:00;46.73;;;27.17;;
21876;SDS011;11103;43.788;23.710;2023-03-01T08:30:26;49.00;;;29.17;;
21876;SDS011;11103;43.788;23.710;2023-03-01T08:32:52;46.97;;;28.10;;
21876;SDS011;11103;43.788;23.710;2023-03-01T08:35:18;42.47;;;26.60;;
21876;SDS011;11103;43.788;23.710;2023-03-01T08:37:44;45.63;;;28.37;;
21876;SDS011;11103;43.788;23.710;2023-03-01T08:40:10;45.37;;;27.30;;
21876;SDS011;11103;43.788;23.710;2023-03-01T08:42:38;47.50;;;27.87;;
21876;SDS011;11103;43.788;23.710;2023-03-01T08:45:04;48.97;;;29.03;;
21876;SDS011;11103;43.788;23.710;2023-03-01T08:47:30;51.03;;;29.20;;
21876;SDS011;11103;43.788;23.710;2023-03-01T08:49:55;41.77;;;27.90;;
21876;SDS011;11103;43.788;23.710;2023-03-01T08:52:20;50.57;;;29.60;;
21876;SDS011;11103;43.788;23.710;2023-03-01T08:54:47;45.77;;;26.43;;
21876;SDS011;11103;43.788;23.710;2023-03-01T08:57:13;42.07;;;25.57;;
21876;SDS011;11103;43.788;23.710;2023-03-01T08:59:39;43.10;;;26.43;;
21876;SDS011;11103;43.788;23.710;2023-03-01T09:02:08;36.73;;;23.80;;
21876;SDS011;11103;43.788;23.710;2023-03-01T09:04:37;37.30;;;24.20;;
21876;SDS011;11103;43.788;23.710;2023-03-01T09:07:03;38.17;;;24.63;;
21876;SDS011;11103;43.788;23.710;2023-03-01T09:09:28;40.03;;;25.57;;
21876;SDS011;11103;43.788;23.710;2023-03-01T09:11:54;42.00;;;24.77;;
21876;SDS011;11103;43.788;23.710;2023-03-01T09:14:19;38.43;;;24.73;;
21876;SDS011;11103;43.788;23.710;2023-03-01T09:16:45;41.67;;;25.10;;
21876;SDS011;11103;43.788;23.710;2023-03-01T09:19:11;38.83;;;25.17;;
21876;SDS011;11103;43.788;23.710;2023-03-01T09:21:37;42.03;;;25.33;;
21876;SDS011;11103;43.788;23.710;2023-03-01T09:24:03;42.93;;;27.03;;
21876;SDS011;11103;43.788;23.710;2023-03-01T09:26:28;42.77;;;26.67;;
21876;SDS011;11103;43.788;23.710;2023-03-01T09:28:54;41.73;;;26.07;;
21876;SDS011;11103;43.788;23.710;2023-03-01T09:31:21;45.40;;;27.63;;
21876;SDS011;11103;43.788;23.710;2023-03-01T09:33:49;43.07;;;25.37;;
21876;SDS011;11103;43.788;23.710;2023-03-01T09:36:17;40.43;;;25.37;;
21876;SDS011;11103;43.788;23.710;2023-03-01T09:38:45;43.37;;;26.40;;
21876;SDS011;11103;43.788;23.710;2023-03-01T09:43:46;41.63;;;25.00;;
21876;SDS011;11103;43.788;23.710;2023-03-01T09:46:19;43.50;;;26.07;;
21876;SDS011;11103;43.788;23.710;2023-03-01T09:49:01;42.10;;;25.40;;
21876;SDS011;11103;43.788;23.710;2023-03-01T09:51:32;45.23;;;26.37;;
21876;SDS011;11103;43.788;23.710;2023-03-01T09:54:03;44.23;;;26.10;;
21876;SDS011;11103;43.788;23.710;2023-03-01T09:56:36;43.30;;;26.20;;
21876;SDS011;11103;43.788;23.710;2023-03-01T10:04:49;39.87;;;24.47;;
21876;SDS011;11103;43.788;23.710;2023-03-01T10:10:08;46.00;;;26.27;;
21876;SDS011;11103;43.788;23.710;2023-03-01T10:12:47;50.60;;;27.77;;
21876;SDS011;11103;43.788;23.710;2023-03-01T10:15:22;53.30;;;28.20;;
21876;SDS011;11103;43.788;23.710;2023-03-01T10:17:57;42.83;;;26.43;;
21876;SDS011;11103;43.788;23.710;2023-03-01T10:20:42;49.47;;;28.27;;
21876;SDS011;11103;43.788;23.710;2023-03-01T10:23:12;46.87;;;27.23;;
21876;SDS011;11103;43.788;23.710;2023-03-01T10:28:06;49.47;;;27.53;;
21876;SDS011;11103;43.788;23.710;2023-03-01T10:30:41;52.47;;;29.50;;
21876;SDS011;11103;43.788;23.710;2023-03-01T10:33:27;48.23;;;26.87;;
21876;SDS011;11103;43.788;23.710;2023-03-01T10:36:00;41.80;;;26.23;;
21876;SDS011;11103;43.788;23.710;2023-03-01T10:38:26;50.33;;;28.23;;
21876;SDS011;11103;43.788;23.710;2023-03-01T10:43:22;46.67;;;28.87;;
21876;SDS011;11103;43.788;23.710;2023-03-01T10:45:52;48.77;;;27.47;;
21876;SDS011;11103;43.788;23.710;2023-03-01T10:48:21;43.13;;;26.50;;
21876;SDS011;11103;43.788;23.710;2023-03-01T10:53:23;37.00;;;23.50;;
21876;SDS011;11103;43.788;23.710;2023-03-01T10:55:59;42.50;;;25.40;;
21876;SDS011;11103;43.788;23.710;2023-03-01T10:58:39;35.07;;;22.27;;
21876;SDS011;11103;43.788;23.710;2023-03-01T11:03:41;37.63;;;23.90;;
21876;SDS011;11103;43.788;23.710;2023-03-01T11:08:40;37.73;;;22.17;;
21876;SDS011;11103;43.788;23.710;2023-03-01T11:19:22;33.93;;;22.23;;
21876;SDS011;11103;43.788;23.710;2023-03-01T11:21:50;36.30;;;23.47;;
21876;SDS011;11103;43.788;23.710;2023-03-01T11:24:27;43.40;;;25.80;;
21876;SDS011;11103;43.788;23.710;2023-03-01T11:27:01;36.53;;;23.03;;
21876;SDS011;11103;43.788;23.710;2023-03-01T11:29:37;36.07;;;22.97;;
21876;SDS011;11103;43.788;23.710;2023-03-01T11:32:07;34.90;;;22.30;;
21876;SDS011;11103;43.788;23.710;2023-03-01T11:34:47;36.90;;;23.67;;
21876;SDS011;11103;43.788;23.710;2023-03-01T11:42:19;35.67;;;22.53;;
21876;SDS011;11103;43.788;23.710;2023-03-01T11:44:51;35.53;;;22.83;;
21876;SDS011;11103;43.788;23.710;2023-03-01T11:47:32;37.77;;;24.47;;
21876;SDS011;11103;43.788;23.710;2023-03-01T11:53:01;34.47;;;21.60;;
21876;SDS011;11103;43.788;23.710;2023-03-01T12:06:37;33.80;;;21.17;;
21876;SDS011;11103;43.788;23.710;2023-03-01T12:14:25;31.37;;;21.43;;
21876;SDS011;11103;43.788;23.710;2023-03-01T12:25:31;28.33;;;19.37;;
21876;SDS011;11103;43.788;23.710;2023-03-01T12:28:14;32.40;;;20.27;;
21876;SDS011;11103;43.788;23.710;2023-03-01T12:39:15;30.50;;;19.10;;
21876;SDS011;11103;43.788;23.710;2023-03-01T12:42:04;29.83;;;19.07;;
21876;SDS011;11103;43.788;23.710;2023-03-01T12:44:53;29.40;;;19.50;;
21876;SDS011;11103;43.788;23.710;2023-03-01T12:50:15;32.80;;;20.07;;
21876;SDS011;11103;43.788;23.710;2023-03-01T12:53:00;32.77;;;20.53;;
21876;SDS011;11103;43.788;23.710;2023-03-01T12:55:38;31.83;;;20.03;;
21876;SDS011;11103;43.788;23.710;2023-03-01T13:01:05;31.87;;;21.23;;
21876;SDS011;11103;43.788;23.710;2023-03-01T13:15:32;33.13;;;21.20;;
21876;SDS011;11103;43.788;23.710;2023-03-01T13:18:03;33.77;;;21.97;;
21876;SDS011;11103;43.788;23.710;2023-03-01T13:20:56;35.23;;;21.30;;
21876;SDS011;11103;43.788;23.710;2023-03-01T13:23:26;38.70;;;23.37;;
21876;SDS011;11103;43.788;23.710;2023-03-01T13:31:58;35.60;;;22.57;;
21876;SDS011;11103;43.788;23.710;2023-03-01T13:34:40;35.03;;;22.10;;
21876;SDS011;11103;43.788;23.710;2023-03-01T13:37:13;35.53;;;22.50;;
21876;SDS011;11103;43.788;23.710;2023-03-01T13:39:44;34.83;;;21.93;;
21876;SDS011;11103;43.788;23.710;2023-03-01T13:42:28;36.37;;;22.13;;
21876;SDS011;11103;43.788;23.710;2023-03-01T13:44:55;34.93;;;21.20;;
21876;SDS011;11103;43.788;23.710;2023-03-01T13:47:22;40.00;;;23.27;;
21876;SDS011;11103;43.788;23.710;2023-03-01T13:52:30;39.90;;;24.73;;
21876;SDS011;11103;43.788;23.710;2023-03-01T13:55:03;41.53;;;24.70;;
21876;SDS011;11103;43.788;23.710;2023-03-01T13:57:36;39.77;;;24.23;;
21876;SDS011;11103;43.788;23.710;2023-03-01T14:00:05;42.17;;;24.43;;
21876;SDS011;11103;43.788;23.710;2023-03-01T14:02:31;43.03;;;24.83;;
21876;SDS011;11103;43.788;23.710;2023-03-01T14:04:57;39.53;;;24.43;;
21876;SDS011;11103;43.788;23.710;2023-03-01T14:07:25;42.23;;;24.90;;
21876;SDS011;11103;43.788;23.710;2023-03-01T14:09:58;40.43;;;23.37;;
21876;SDS011;11103;43.788;23.710;2023-03-01T14:12:43;46.57;;;27.33;;
21876;SDS011;11103;43.788;23.710;2023-03-01T14:15:22;44.83;;;25.30;;
21876;SDS011;11103;43.788;23.710;2023-03-01T14:17:59;44.70;;;26.20;;
21876;SDS011;11103;43.788;23.710;2023-03-01T14:20:48;46.57;;;25.67;;
21876;SDS011;11103;43.788;23.710;2023-03-01T14:23:18;42.33;;;24.93;;
21876;SDS011;11103;43.788;23.710;2023-03-01T14:25:47;44.03;;;25.47;;
21876;SDS011;11103;43.788;23.710;2023-03-01T14:28:20;41.27;;;24.57;;
21876;SDS011;11103;43.788;23.710;2023-03-01T14:30:51;45.47;;;25.67;;
21876;SDS011;11103;43.788;23.710;2023-03-01T14:35:53;45.07;;;24.87;;
21876;SDS011;11103;43.788;23.710;2023-03-01T14:38:20;60.90;;;32.10;;
21876;SDS011;11103;43.788;23.710;2023-03-01T14:40:55;48.73;;;27.63;;
21876;SDS011;11103;43.788;23.710;2023-03-01T14:43:24;48.73;;;27.03;;
21876;SDS011;11103;43.788;23.710;2023-03-01T14:45:51;48.00;;;27.23;;
21876;SDS011;11103;43.788;23.710;2023-03-01T14:48:16;51.10;;;28.73;;
21876;SDS011;11103;43.788;23.710;2023-03-01T14:50:43;48.30;;;26.67;;
21876;SDS011;11103;43.788;23.710;2023-03-01T14:53:20;49.90;;;28.27;;
21876;SDS011;11103;43.788;23.710;2023-03-01T14:55:55;43.23;;;24.70;;
21876;SDS011;11103;43.788;23.710;2023-03-01T14:58:25;51.57;;;27.40;;
21876;SDS011;11103;43.788;23.710;2023-03-01T15:00:57;51.50;;;26.37;;
21876;SDS011;11103;43.788;23.710;2023-03-01T15:03:27;54.47;;;28.77;;
21876;SDS011;11103;43.788;23.710;2023-03-01T15:05:58;53.50;;;30.33;;
21876;SDS011;11103;43.788;23.710;2023-03-01T15:08:26;56.03;;;30.40;;
21876;SDS011;11103;43.788;23.710;2023-03-01T15:10:59;52.87;;;29.00;;
21876;SDS011;11103;43.788;23.710;2023-03-01T15:13:48;53.07;;;29.47;;
21876;SDS011;11103;43.788;23.710;2023-03-01T15:16:17;54.13;;;29.70;;
21876;SDS011;11103;43.788;23.710;2023-03-01T15:18:50;54.73;;;28.63;;
21876;SDS011;11103;43.788;23.710;2023-03-01T15:21:23;60.03;;;33.37;;
21876;SDS011;11103;43.788;23.710;2023-03-01T15:23:57;57.80;;;32.27;;
21876;SDS011;11103;43.788;23.710;2023-03-01T15:26:30;56.67;;;31.40;;
21876;SDS011;11103;43.788;23.710;2023-03-01T15:29:00;55.23;;;31.67;;
21876;SDS011;11103;43.788;23.710;2023-03-01T15:31:28;57.10;;;32.23;;
21876;SDS011;11103;43.788;23.710;2023-03-01T15:34:11;56.67;;;31.30;;
21876;SDS011;11103;43.788;23.710;2023-03-01T15:36:47;55.23;;;31.33;;
21876;SDS011;11103;43.788;23.710;2023-03-01T15:45:21;58.97;;;32.70;;
21876;SDS011;11103;43.788;23.710;2023-03-01T15:47:52;58.53;;;33.93;;
21876;SDS011;11103;43.788;23.710;2023-03-01T15:50:29;54.23;;;31.87;;
21876;SDS011;11103;43.788;23.710;2023-03-01T15:52:58;58.23;;;32.63;;
21876;SDS011;11103;43.788;23.710;2023-03-01T15:55:29;53.03;;;30.53;;
21876;SDS011;11103;43.788;23.710;2023-03-01T15:58:05;56.70;;;30.67;;
21876;SDS011;11103;43.788;23.710;2023-03-01T16:00:35;56.13;;;30.93;;
21876;SDS011;11103;43.788;23.710;2023-03-01T16:03:01;60.70;;;32.13;;
21876;SDS011;11103;43.788;23.710;2023-03-01T16:05:27;57.10;;;31.27;;
21876;SDS011;11103;43.788;23.710;2023-03-01T16:07:55;60.60;;;31.13;;
21876;SDS011;11103;43.788;23.710;2023-03-01T16:10:21;60.17;;;32.43;;
21876;SDS011;11103;43.788;23.710;2023-03-01T16:12:46;48.57;;;28.07;;
21876;SDS011;11103;43.788;23.710;2023-03-01T16:15:23;58.07;;;31.03;;
21876;SDS011;11103;43.788;23.710;2023-03-01T16:17:50;55.43;;;30.73;;
21876;SDS011;11103;43.788;23.710;2023-03-01T16:20:17;57.00;;;31.40;;
21876;SDS011;11103;43.788;23.710;2023-03-01T16:22:43;49.93;;;29.70;;